createdAt,value
2022-10-11T00:02:02.773Z,13.33
2022-10-11T00:04:32.164Z,13.45
2022-10-11T00:06:59.625Z,13.47
2022-10-11T00:09:26.977Z,13.48
2022-10-11T00:11:55.183Z,13.44
2022-10-11T00:14:22.896Z,13.64
2022-10-11T00:16:50.294Z,13.59
2022-10-11T00:19:18.687Z,13.56
2022-10-11T00:21:47.965Z,13.45
2022-10-11T00:24:15.564Z,13.58
2022-10-11T00:26:46.812Z,13.59
2022-10-11T00:29:14.686Z,13.69
2022-10-11T00:31:42.133Z,13.79
2022-10-11T00:34:09.824Z,13.85
2022-10-11T00:36:37.093Z,13.72
2022-10-11T00:39:05.915Z,13.64
2022-10-11T00:41:33.550Z,13.69
2022-10-11T00:44:12.478Z,13.54
2022-10-11T00:46:42.571Z,13.58
2022-10-11T00:49:15.375Z,13.46
2022-10-11T00:51:48.040Z,13.36
2022-10-11T00:54:19.204Z,13.30
2022-10-11T00:56:52.863Z,13.31
2022-10-11T00:59:24.614Z,13.15
2022-10-11T01:01:53.655Z,13.09
2022-10-11T01:04:21.851Z,13.08
2022-10-11T01:06:50.555Z,12.97
2022-10-11T01:09:20.359Z,13.07
2022-10-11T01:11:51.023Z,13.11
2022-10-11T01:14:47.097Z,13.20
2022-10-11T01:17:23.568Z,13.10
2022-10-11T01:20:15.643Z,13.10
2022-10-11T01:23:10.510Z,12.91
2022-10-11T05:24:07.328Z,12.21
2022-10-11T05:26:34.978Z,12.25
2022-10-11T05:29:02.290Z,12.35
2022-10-11T05:31:29.711Z,12.44
2022-10-11T05:33:57.316Z,12.41
2022-10-11T05:36:24.521Z,12.39
2022-10-11T05:38:51.990Z,12.43
2022-10-11T05:41:20.709Z,12.26
2022-10-11T05:43:48.050Z,12.30
2022-10-11T05:46:16.632Z,12.36
2022-10-11T05:48:43.887Z,12.50
2022-10-11T05:51:11.921Z,12.64
2022-10-11T05:53:39.612Z,12.55
2022-10-11T05:56:18.277Z,12.58
2022-10-11T05:58:47.527Z,12.49
2022-10-11T06:01:19.900Z,12.65
2022-10-11T06:03:47.466Z,12.59
2022-10-11T06:06:15.210Z,12.60
2022-10-11T06:08:43.438Z,12.61
2022-10-11T06:11:13.280Z,12.67
2022-10-11T06:13:41.153Z,12.68
2022-10-11T06:16:10.349Z,12.59
2022-10-11T06:18:37.971Z,12.70
2022-10-11T06:21:05.743Z,12.86
2022-10-11T06:23:33.667Z,12.98
2022-10-11T06:26:02.581Z,12.94
2022-10-11T06:28:30.246Z,12.95
2022-10-11T06:30:58.339Z,12.87
2022-10-11T06:33:27.600Z,12.89
2022-10-11T06:35:58.268Z,13.00
2022-10-11T06:38:26.239Z,12.79
2022-10-11T06:40:53.907Z,12.83
2022-10-11T06:43:21.759Z,13.01
2022-10-11T06:45:49.355Z,13.02
2022-10-11T06:48:16.954Z,13.10
2022-10-11T06:50:59.545Z,13.30
2022-10-11T06:53:28.312Z,13.38
2022-10-11T06:56:02.650Z,13.64
2022-10-11T06:58:30.504Z,13.92
2022-10-11T07:01:00.897Z,14.10
2022-10-11T07:03:28.370Z,14.26
2022-10-11T07:06:02.832Z,14.16
2022-10-11T07:08:30.591Z,14.15
2022-10-11T07:11:01.441Z,14.33
2022-10-11T07:13:28.928Z,14.58
2022-10-11T07:15:56.268Z,14.68
2022-10-11T07:18:24.067Z,14.85
2022-10-11T07:20:51.697Z,14.92
2022-10-11T07:23:20.574Z,14.76
2022-10-11T07:25:48.397Z,14.91
2022-10-11T07:28:15.859Z,15.20
2022-10-11T07:30:43.276Z,15.35
2022-10-11T07:33:10.922Z,15.59
2022-10-11T07:35:38.323Z,15.72
2022-10-11T07:38:06.405Z,15.89
2022-10-11T07:40:44.223Z,15.89
2022-10-11T07:43:12.565Z,15.93
2022-10-11T07:45:40.950Z,15.71
2022-10-11T07:48:08.959Z,15.89
2022-10-11T07:50:36.340Z,16.35
2022-10-11T07:53:04.109Z,16.26
2022-10-11T07:55:36.490Z,16.37
2022-10-11T07:58:03.840Z,16.49
2022-10-11T08:00:31.455Z,16.71
2022-10-11T08:02:58.701Z,16.63
2022-10-11T08:05:26.121Z,16.55
2022-10-11T08:07:54.067Z,16.63
2022-10-11T08:10:41.747Z,16.56
2022-10-11T08:13:09.491Z,16.79
2022-10-11T08:15:37.022Z,16.96
2022-10-11T08:18:05.238Z,17.33
2022-10-11T08:20:32.691Z,17.72
2022-10-11T08:23:00.095Z,18.01
2022-10-11T08:25:27.933Z,17.99
2022-10-11T08:27:57.371Z,18.05
2022-10-11T08:30:24.698Z,17.96
2022-10-11T08:32:51.948Z,17.91
2022-10-11T08:35:19.531Z,17.77
2022-10-11T08:37:46.896Z,17.82
2022-10-11T08:40:16.742Z,17.53
2022-10-11T08:42:49.198Z,17.73
2022-10-11T08:45:28.574Z,17.76
2022-10-11T08:48:05.417Z,17.73
2022-10-11T08:50:33.010Z,17.64
2022-10-11T08:53:06.143Z,17.57
2022-10-11T08:55:39.717Z,17.49
2022-10-11T08:58:10.736Z,17.62
2022-10-11T09:00:42.430Z,17.63
2022-10-11T09:03:23.523Z,17.45
2022-10-11T09:06:02.299Z,17.70
2022-10-11T09:08:40.899Z,17.70
2022-10-11T09:11:16.868Z,17.78
2022-10-11T09:14:02.532Z,17.66
2022-10-11T09:16:45.718Z,17.83
2022-10-11T09:19:31.061Z,17.95
2022-10-11T09:22:06.014Z,17.92
2022-10-11T09:25:02.353Z,17.84
2022-10-11T09:27:57.799Z,18.08
2022-10-11T09:30:22.982Z,18.20
2022-10-11T09:33:02.770Z,17.97
2022-10-11T09:35:36.304Z,17.95
2022-10-11T09:38:07.622Z,18.03
2022-10-11T09:40:45.350Z,18.23
2022-10-11T09:43:13.273Z,18.34
2022-10-11T09:45:41.599Z,18.24
2022-10-11T09:48:16.956Z,17.97
2022-10-11T09:50:46.588Z,18.02
2022-10-11T09:53:13.960Z,18.10
2022-10-11T09:55:48.759Z,18.18
2022-10-11T09:58:31.252Z,18.11
2022-10-11T10:01:07.402Z,18.33
2022-10-11T10:03:39.469Z,18.51
2022-10-11T10:06:12.100Z,18.73
2022-10-11T10:08:39.469Z,18.86
2022-10-11T10:11:08.510Z,19.18
2022-10-11T10:13:44.820Z,19.52
2022-10-11T10:16:25.039Z,19.40
2022-10-11T10:18:56.842Z,19.30
2022-10-11T10:21:28.257Z,19.21
2022-10-11T10:23:57.253Z,19.55
2022-10-11T10:26:26.708Z,19.64
2022-10-11T10:29:05.226Z,19.61
2022-10-11T10:32:01.548Z,19.64
2022-10-11T10:34:30.189Z,19.24
2022-10-11T10:37:04.001Z,18.78
2022-10-11T10:39:39.652Z,18.68
2022-10-11T10:42:13.807Z,18.45
2022-10-11T10:44:42.174Z,18.56
2022-10-11T10:47:21.537Z,19.04
2022-10-11T10:49:57.385Z,18.89
2022-10-11T10:52:47.834Z,18.61
2022-10-11T10:55:23.958Z,18.73
2022-10-11T10:58:06.863Z,18.48
2022-10-11T11:00:41.527Z,18.18
2022-10-11T11:03:16.088Z,18.13
2022-10-11T11:05:50.479Z,17.95
2022-10-11T11:08:38.187Z,18.53
2022-10-11T11:11:19.688Z,19.06
2022-10-11T11:13:54.549Z,19.49
2022-10-11T11:16:31.852Z,19.81
2022-10-11T11:19:12.314Z,20.09
2022-10-11T11:21:48.295Z,20.79
2022-10-11T11:24:26.952Z,21.20
2022-10-11T11:27:01.706Z,21.26
2022-10-11T11:29:42.064Z,20.88
2022-10-11T11:32:24.250Z,20.38
2022-10-11T11:34:56.307Z,19.75
2022-10-11T11:37:30.968Z,19.31
2022-10-11T11:40:05.875Z,18.95
2022-10-11T11:42:39.531Z,18.80
2022-10-11T11:45:18.620Z,18.81
2022-10-11T11:47:52.761Z,18.58
2022-10-11T11:50:23.045Z,18.53
2022-10-11T11:52:54.712Z,18.99
2022-10-11T11:55:27.739Z,19.29
2022-10-11T11:58:07.262Z,19.88
2022-10-11T12:00:42.278Z,19.72
2022-10-11T12:03:13.626Z,19.60
2022-10-11T12:06:19.239Z,20.19
2022-10-11T12:08:55.835Z,20.49
2022-10-11T12:11:29.471Z,20.72
2022-10-11T12:14:00.686Z,20.63
2022-10-11T12:16:28.588Z,20.84
2022-10-11T12:19:01.505Z,20.98
2022-10-11T12:21:32.467Z,21.36
2022-10-11T12:24:09.496Z,21.52
2022-10-11T12:26:42.543Z,21.18
2022-10-11T12:29:54.545Z,20.74
2022-10-11T12:32:50.229Z,20.93
2022-10-11T12:35:56.543Z,20.82
2022-10-11T12:38:25.826Z,20.87
2022-10-11T12:40:56.565Z,21.17
2022-10-11T12:43:36.031Z,21.01
2022-10-11T12:46:55.580Z,20.80
2022-10-11T12:49:34.484Z,20.93
2022-10-11T12:52:04.373Z,21.06
2022-10-11T12:54:55.543Z,20.66
2022-10-11T12:57:46.347Z,20.89
2022-10-11T13:00:24.170Z,21.06
2022-10-11T13:02:52.384Z,21.19
2022-10-11T13:05:26.178Z,20.76
2022-10-11T13:07:57.079Z,20.50
2022-10-11T13:10:28.985Z,20.49
2022-10-11T13:12:59.749Z,20.59
2022-10-11T13:15:28.736Z,20.24
2022-10-11T13:17:59.885Z,20.12
2022-10-11T13:20:30.607Z,19.96
2022-10-11T13:22:58.518Z,20.11
2022-10-11T13:25:27.843Z,20.36
2022-10-11T13:27:58.511Z,20.53
2022-10-11T13:30:29.710Z,20.56
2022-10-11T13:32:57.772Z,20.71
2022-10-11T13:35:30.453Z,20.89
2022-10-11T13:37:59.480Z,21.16
2022-10-11T13:40:27.641Z,21.12
2022-10-11T13:42:57.708Z,21.05
2022-10-11T13:45:28.098Z,21.23
2022-10-11T13:47:56.384Z,21.24
2022-10-11T13:50:25.479Z,21.34
2022-10-11T13:52:58.024Z,21.42
2022-10-11T13:55:29.859Z,21.84
2022-10-11T13:58:00.035Z,21.83
2022-10-11T14:00:36.580Z,21.91
2022-10-11T14:03:10.402Z,21.91
2022-10-11T14:05:40.550Z,21.95
2022-10-11T14:08:21.513Z,21.58
2022-10-11T14:10:55.639Z,21.29
2022-10-11T14:13:30.336Z,21.11
2022-10-11T14:16:00.011Z,21.21
2022-10-11T14:18:46.708Z,21.21
2022-10-11T14:21:25.346Z,21.08
2022-10-11T14:23:54.315Z,21.18
2022-10-11T14:26:23.861Z,21.20
2022-10-11T14:28:56.253Z,21.11
2022-10-11T14:31:24.871Z,21.20
2022-10-11T14:33:52.992Z,21.19
2022-10-11T14:36:21.526Z,21.21
2022-10-11T14:38:49.209Z,20.94
2022-10-11T14:41:17.143Z,20.86
2022-10-11T14:43:44.817Z,20.77
2022-10-11T14:46:21.368Z,20.82
2022-10-11T14:48:55.141Z,20.40
2022-10-11T14:51:27.732Z,20.19
2022-10-11T14:53:55.863Z,19.83
2022-10-11T14:56:23.281Z,19.75
2022-10-11T14:58:50.852Z,19.88
2022-10-11T15:01:20.131Z,19.88
2022-10-11T15:03:47.555Z,19.75
2022-10-11T15:06:19.604Z,19.59
2022-10-11T15:08:46.894Z,19.23
2022-10-11T15:11:22.537Z,19.25
2022-10-11T15:13:50.490Z,19.16
2022-10-11T15:16:21.439Z,18.85
2022-10-11T15:18:49.704Z,18.60
2022-10-11T15:21:18.978Z,18.55
2022-10-11T15:23:47.755Z,18.39
2022-10-11T15:26:17.172Z,18.31
2022-10-11T15:28:45.339Z,18.24
2022-10-11T15:31:13.513Z,17.99
2022-10-11T15:33:42.724Z,17.92
2022-10-11T15:36:13.807Z,17.87
2022-10-11T15:38:41.886Z,17.84
2022-10-11T15:41:10.178Z,17.70
2022-10-11T15:43:37.880Z,17.71
2022-10-11T15:46:06.105Z,17.32
2022-10-11T15:48:34.306Z,17.16
2022-10-11T15:51:03.220Z,16.90
2022-10-11T15:53:30.895Z,16.69
2022-10-11T15:56:01.214Z,16.76
2022-10-11T15:58:31.292Z,16.47
2022-10-11T16:01:03.777Z,16.27
2022-10-11T16:03:31.875Z,16.14
2022-10-11T16:06:04.587Z,15.96
2022-10-11T16:08:34.545Z,15.76
2022-10-11T16:11:02.511Z,15.54
2022-10-11T16:13:30.111Z,15.10
2022-10-11T16:15:58.221Z,14.82
2022-10-11T16:18:25.733Z,14.85
2022-10-11T16:20:53.545Z,14.52
2022-10-11T16:23:22.301Z,14.33
2022-10-11T16:25:59.370Z,14.17
2022-10-11T16:28:27.728Z,14.08
2022-10-11T16:30:56.099Z,13.72
2022-10-11T16:33:23.804Z,13.50
2022-10-11T16:35:51.335Z,13.50
2022-10-11T16:38:18.807Z,13.32
2022-10-11T16:40:46.556Z,13.38
2022-10-11T16:43:15.335Z,13.15
2022-10-11T16:45:42.861Z,12.88
2022-10-11T16:48:10.206Z,12.71
2022-10-11T16:50:39.685Z,12.68
2022-10-11T16:53:07.487Z,12.41
2022-10-11T16:55:34.869Z,12.17
2022-10-11T16:58:02.741Z,12.14
2022-10-11T17:00:31.666Z,12.15
2022-10-11T17:02:59.395Z,12.19
2022-10-11T17:05:26.774Z,12.11
2022-10-11T17:07:54.624Z,12.03
2022-10-11T17:10:22.300Z,11.90
2022-10-11T17:12:50.356Z,11.69
2022-10-11T17:15:17.872Z,11.54
2022-10-11T17:17:47.035Z,11.52
2022-10-11T17:20:14.379Z,11.46
2022-10-11T17:22:41.995Z,11.41
2022-10-11T17:25:09.632Z,11.13
2022-10-11T17:27:37.302Z,11.17
2022-10-11T17:30:05.531Z,11.00
2022-10-11T17:32:33.001Z,10.97
2022-10-11T17:35:01.986Z,11.00
2022-10-11T17:37:29.485Z,10.89
2022-10-11T17:39:57.097Z,10.84
2022-10-11T17:42:24.670Z,10.40
2022-10-11T17:44:52.056Z,10.36
2022-10-11T17:47:19.748Z,10.43
2022-10-11T17:49:47.098Z,10.44
2022-10-11T17:52:16.102Z,10.41
2022-10-11T17:54:43.395Z,10.29
2022-10-11T17:57:10.906Z,10.37
2022-10-11T17:59:38.469Z,10.23
2022-10-11T18:02:06.395Z,10.16
2022-10-11T18:04:33.866Z,10.15
2022-10-11T18:07:01.693Z,10.11
2022-10-11T18:09:30.357Z,9.85
2022-10-11T18:11:57.891Z,9.77
2022-10-11T18:14:25.263Z,9.72
2022-10-11T18:16:52.944Z,9.65
2022-10-11T18:19:20.346Z,9.55
2022-10-11T18:21:47.789Z,9.48
2022-10-11T18:24:16.774Z,9.52
2022-10-11T18:26:47.026Z,9.43
2022-10-11T18:29:14.752Z,9.41
2022-10-11T18:31:42.736Z,9.29
2022-10-11T18:34:12.225Z,9.07
2022-10-11T18:36:40.216Z,9.05
2022-10-11T18:39:09.412Z,9.13
2022-10-11T18:41:38.980Z,9.32
2022-10-11T18:44:10.464Z,9.13
2022-10-11T18:46:38.098Z,9.20
2022-10-11T18:49:05.532Z,9.30
2022-10-11T18:51:35.092Z,9.31
2022-10-11T18:54:03.560Z,9.29
2022-10-11T18:56:33.533Z,9.17
2022-10-11T18:59:01.280Z,9.18
2022-10-11T19:01:32.087Z,9.09
2022-10-11T19:04:01.502Z,9.20
2022-10-11T19:06:31.186Z,9.11
2022-10-11T19:09:00.969Z,8.97
2022-10-11T19:11:29.112Z,8.42
2022-10-11T19:13:58.771Z,8.37
2022-10-11T19:16:27.475Z,8.25
2022-10-11T19:18:56.867Z,8.31
2022-10-11T19:21:24.820Z,8.23
2022-10-11T19:23:52.736Z,8.20
2022-10-11T19:26:22.598Z,8.25
2022-10-11T19:28:55.717Z,8.27
2022-10-11T19:31:23.809Z,8.30
2022-10-11T19:33:51.817Z,8.29
2022-10-11T19:36:20.583Z,8.28
2022-10-11T19:38:49.803Z,8.13
2022-10-11T19:41:18.940Z,8.17
2022-10-11T19:43:46.672Z,8.07
2022-10-11T19:46:27.284Z,8.20
2022-10-11T19:49:04.270Z,8.17
2022-10-11T19:51:34.065Z,8.18
2022-10-11T19:54:03.187Z,8.14
2022-10-11T19:56:32.325Z,8.10
2022-10-11T19:59:00.420Z,7.97
2022-10-11T20:01:30.255Z,7.84
2022-10-11T20:03:59.353Z,7.86
2022-10-11T20:06:28.455Z,7.94
2022-10-11T20:09:23.850Z,7.87
2022-10-11T20:11:45.919Z,7.63
2022-10-11T20:14:13.391Z,7.41
2022-10-11T20:16:41.221Z,7.68
2022-10-11T20:19:08.686Z,7.75
2022-10-11T20:21:36.310Z,7.69
2022-10-11T20:24:05.505Z,7.50
2022-10-11T20:26:32.997Z,7.48
2022-10-11T20:29:00.636Z,7.37
2022-10-11T20:31:30.272Z,7.22
2022-10-11T20:33:59.657Z,7.22
2022-10-11T20:36:27.052Z,7.13
2022-10-11T20:38:54.697Z,7.07
2022-10-11T20:41:25.255Z,7.16
2022-10-11T20:43:54.840Z,7.29
2022-10-11T20:46:23.949Z,6.96
2022-10-11T20:48:56.467Z,7.06
2022-10-11T20:51:27.583Z,6.66
2022-10-11T20:53:54.905Z,6.66
2022-10-11T20:56:23.673Z,6.74
2022-10-11T20:58:56.096Z,6.71
2022-10-11T21:01:25.816Z,6.78
2022-10-11T21:03:53.754Z,6.83
2022-10-11T21:06:23.935Z,6.87
2022-10-11T21:08:51.654Z,6.79
2022-10-11T21:11:18.890Z,6.92
2022-10-11T21:13:47.979Z,6.91
2022-10-11T21:16:16.570Z,6.96
2022-10-11T21:18:44.127Z,6.90
2022-10-11T21:21:13.309Z,6.92
2022-10-11T21:23:41.324Z,6.90
2022-10-11T21:26:10.750Z,6.87
2022-10-11T21:28:38.758Z,6.77
2022-10-11T21:31:09.716Z,6.78
2022-10-11T21:33:38.385Z,6.86
2022-10-11T21:36:06.883Z,6.93
2022-10-11T21:38:34.619Z,6.90
2022-10-11T21:41:02.747Z,6.82
2022-10-11T21:43:29.977Z,6.77
2022-10-11T21:45:57.563Z,6.81
2022-10-11T21:48:26.593Z,6.80
2022-10-11T21:50:54.356Z,6.67
2022-10-11T21:53:22.069Z,6.62
2022-10-11T21:55:49.410Z,6.58
2022-10-11T21:58:17.104Z,6.69
2022-10-11T22:00:46.701Z,6.78
2022-10-11T22:03:14.000Z,6.76
2022-10-11T22:05:44.834Z,6.70
2022-10-11T22:08:12.697Z,6.43
2022-10-11T22:10:42.516Z,6.45
2022-10-11T22:13:10.017Z,6.55
2022-10-11T22:15:37.423Z,6.35
2022-10-11T22:18:04.895Z,6.36
2022-10-11T22:20:33.127Z,6.42
2022-10-11T22:23:01.973Z,6.29
2022-10-11T22:25:29.394Z,6.36
2022-10-11T22:27:57.007Z,6.17
2022-10-11T22:30:24.166Z,6.12
2022-10-11T22:32:51.656Z,6.21
2022-10-11T22:35:19.231Z,6.02
2022-10-11T22:37:46.474Z,5.86
2022-10-11T22:40:15.314Z,5.81
2022-10-11T22:42:43.048Z,6.04
2022-10-11T22:45:10.665Z,6.06
2022-10-11T22:47:38.314Z,6.06
2022-10-11T22:50:06.436Z,6.00
2022-10-11T22:52:33.705Z,6.20
2022-10-11T22:55:00.923Z,6.44
2022-10-11T22:57:29.892Z,6.47
2022-10-11T22:59:57.029Z,6.05
2022-10-11T23:02:24.357Z,5.97
2022-10-11T23:04:51.911Z,5.92
2022-10-11T23:07:46.959Z,6.04
2022-10-11T23:10:16.355Z,5.81
2022-10-11T23:12:45.182Z,5.96
2022-10-11T23:15:12.432Z,6.00
2022-10-11T23:17:39.994Z,5.86
2022-10-11T23:20:08.048Z,5.79
2022-10-11T23:22:35.286Z,5.78
2022-10-11T23:25:02.997Z,5.71
2022-10-11T23:27:30.691Z,5.76
2022-10-11T23:29:59.396Z,5.62
2022-10-11T23:32:26.860Z,5.67
2022-10-11T23:34:54.003Z,5.60
2022-10-11T23:37:21.380Z,5.68
2022-10-11T23:39:48.964Z,5.68
2022-10-11T23:42:16.259Z,5.60
2022-10-11T23:44:43.620Z,5.59
2022-10-11T23:47:12.674Z,5.57
2022-10-11T23:49:39.952Z,5.36
2022-10-11T23:52:07.190Z,5.51
2022-10-11T23:54:34.815Z,5.56
2022-10-11T23:57:02.116Z,5.51
2022-10-11T23:59:29.366Z,5.45
